createdAt,value
2018-04-18T00:00:36.549Z,91.03
2018-04-18T00:03:04.108Z,91.27
2018-04-18T00:05:31.725Z,91.20
2018-04-18T00:07:59.300Z,90.90
2018-04-18T00:10:26.896Z,91.27
2018-04-18T00:12:54.479Z,91.09
2018-04-18T00:15:22.063Z,91.27
2018-04-18T00:17:49.626Z,91.25
2018-04-18T00:20:17.216Z,91.32
2018-04-18T00:22:44.841Z,91.57
2018-04-18T00:25:12.400Z,91.22
2018-04-18T00:27:40.060Z,91.16
2018-04-18T00:30:07.671Z,90.66
2018-04-18T00:32:35.299Z,90.81
2018-04-18T00:35:02.876Z,91.14
2018-04-18T00:37:30.463Z,91.40
2018-04-18T00:39:58.068Z,90.84
2018-04-18T00:42:25.658Z,91.32
2018-04-18T00:44:53.252Z,91.44
2018-04-18T00:47:20.848Z,91.45
2018-04-18T00:49:48.428Z,91.36
2018-04-18T00:52:15.997Z,91.55
2018-04-18T00:54:43.565Z,91.94
2018-04-18T00:57:11.151Z,91.96
2018-04-18T00:59:38.712Z,92.08
2018-04-18T01:02:06.346Z,92.76
2018-04-18T01:04:33.907Z,92.26
2018-04-18T01:07:01.538Z,92.34
2018-04-18T01:09:29.101Z,92.73
2018-04-18T01:11:56.659Z,93.19
2018-04-18T01:14:24.270Z,93.18
2018-04-18T01:16:51.848Z,93.62
2018-04-18T01:19:19.410Z,93.80
2018-04-18T01:21:47.007Z,93.86
2018-04-18T01:24:14.588Z,94.06
2018-04-18T01:26:42.164Z,94.08
2018-04-18T01:29:09.731Z,94.30
2018-04-18T01:31:37.309Z,94.59
2018-04-18T01:34:04.868Z,94.71
2018-04-18T01:36:32.461Z,95.06
2018-04-18T01:39:00.026Z,95.13
2018-04-18T01:41:27.607Z,95.37
2018-04-18T01:43:55.179Z,95.49
2018-04-18T01:46:22.744Z,95.60
2018-04-18T01:48:50.328Z,95.46
2018-04-18T01:51:17.892Z,95.36
2018-04-18T01:53:45.456Z,95.67
2018-04-18T01:56:13.568Z,95.40
2018-04-18T01:58:41.139Z,95.52
2018-04-18T02:01:08.712Z,95.49
2018-04-18T02:03:36.300Z,95.31
2018-04-18T02:06:03.868Z,95.40
2018-04-18T02:08:31.431Z,95.28
2018-04-18T02:10:59.012Z,95.51
2018-04-18T02:13:26.637Z,95.57
2018-04-18T02:15:54.201Z,95.61
2018-04-18T02:18:21.773Z,95.65
2018-04-18T02:20:49.332Z,95.74
2018-04-18T02:23:16.896Z,95.80
2018-04-18T02:25:44.473Z,95.89
2018-04-18T02:28:12.430Z,95.86
2018-04-18T02:30:40.012Z,95.91
2018-04-18T02:33:07.579Z,96.14
2018-04-18T02:35:35.159Z,96.16
2018-04-18T02:38:02.724Z,96.36
2018-04-18T02:40:30.275Z,96.01
2018-04-18T02:42:57.830Z,96.27
2018-04-18T02:45:25.393Z,96.12
2018-04-18T02:47:52.948Z,96.36
2018-04-18T02:50:20.487Z,96.29
2018-04-18T02:52:48.104Z,96.62
2018-04-18T02:55:15.725Z,96.73
2018-04-18T02:57:43.283Z,96.76
2018-04-18T03:00:10.851Z,96.43
2018-04-18T03:02:38.480Z,96.13
2018-04-18T03:05:06.064Z,96.57
2018-04-18T03:07:33.644Z,96.99
2018-04-18T03:10:01.212Z,96.88
2018-04-18T03:12:28.787Z,96.88
2018-04-18T03:14:56.342Z,96.77
2018-04-18T03:17:23.948Z,96.75
2018-04-18T03:19:51.510Z,96.35
2018-04-18T03:22:19.073Z,96.50
2018-04-18T03:24:46.669Z,96.68
2018-04-18T03:27:14.249Z,96.26
2018-04-18T03:29:41.839Z,96.31
2018-04-18T03:32:09.394Z,96.35
2018-04-18T03:34:36.987Z,96.40
2018-04-18T03:37:04.561Z,96.38
2018-04-18T03:39:32.134Z,96.34
2018-04-18T03:41:59.688Z,96.32
2018-04-18T03:44:27.324Z,96.25
2018-04-18T03:46:54.980Z,95.88
2018-04-18T03:49:22.571Z,95.95
2018-04-18T03:51:50.146Z,95.60
2018-04-18T03:54:17.729Z,95.69
2018-04-18T03:56:45.349Z,95.77
2018-04-18T03:59:12.932Z,95.65
2018-04-18T04:01:40.518Z,95.53
2018-04-18T04:04:08.075Z,95.58
2018-04-18T04:06:35.634Z,95.65
2018-04-18T04:09:03.194Z,96.20
2018-04-18T04:11:30.742Z,96.25
2018-04-18T04:13:58.302Z,96.48
2018-04-18T04:16:37.655Z,96.28
2018-04-18T04:19:17.013Z,96.09
2018-04-18T04:21:56.324Z,96.07
2018-04-18T04:24:35.712Z,96.29
2018-04-18T04:27:03.313Z,96.38
2018-04-18T04:29:31.843Z,95.96
2018-04-18T04:31:59.430Z,96.44
2018-04-18T04:34:27.231Z,96.22
2018-04-18T04:36:54.781Z,96.47
2018-04-18T04:39:22.342Z,96.40
2018-04-18T04:41:49.942Z,96.46
2018-04-18T04:44:17.493Z,96.76
2018-04-18T04:46:45.087Z,96.68
2018-04-18T04:49:12.700Z,97.07
2018-04-18T04:51:40.300Z,97.06
2018-04-18T04:54:07.868Z,97.09
2018-04-18T04:56:35.511Z,97.18
2018-04-18T04:59:03.153Z,96.97
2018-04-18T05:01:30.728Z,96.94
2018-04-18T05:03:58.340Z,96.97
2018-04-18T05:06:25.919Z,96.80
2018-04-18T05:08:53.467Z,96.89
2018-04-18T05:11:21.113Z,96.91
2018-04-18T05:13:48.745Z,96.35
2018-04-18T05:16:16.329Z,96.54
2018-04-18T05:18:43.997Z,96.10
2018-04-18T05:21:11.602Z,96.60
2018-04-18T05:23:39.170Z,96.23
2018-04-18T05:26:06.754Z,96.04
2018-04-18T05:28:34.347Z,95.87
2018-04-18T05:31:01.909Z,95.87
2018-04-18T05:33:29.483Z,95.72
2018-04-18T05:35:57.044Z,95.17
2018-04-18T05:38:24.629Z,95.13
2018-04-18T05:40:52.213Z,94.65
2018-04-18T05:43:19.792Z,94.41
2018-04-18T05:45:47.380Z,93.78
2018-04-18T05:48:14.968Z,93.58
2018-04-18T05:50:42.522Z,93.18
2018-04-18T05:53:10.070Z,92.17
2018-04-18T05:55:37.622Z,88.10
2018-04-18T05:58:05.190Z,83.14
2018-04-18T06:00:32.772Z,78.87
2018-04-18T06:03:00.351Z,74.84
2018-04-18T06:05:27.914Z,72.42
2018-04-18T06:07:55.473Z,69.98
2018-04-18T06:10:23.037Z,70.16
2018-04-18T06:12:50.616Z,70.10
2018-04-18T06:15:18.213Z,68.67
2018-04-18T06:17:45.785Z,67.22
2018-04-18T06:20:13.368Z,67.30
2018-04-18T06:22:40.921Z,67.22
2018-04-18T06:25:08.480Z,68.81
2018-04-18T06:27:36.071Z,66.36
2018-04-18T06:30:03.653Z,65.54
2018-04-18T06:32:31.236Z,61.44
2018-04-18T06:34:58.872Z,62.55
2018-04-18T06:37:26.427Z,62.94
2018-04-18T06:39:54.012Z,63.42
2018-04-18T06:42:21.573Z,60.17
2018-04-18T06:44:49.158Z,60.39
2018-04-18T06:47:16.737Z,62.70
2018-04-18T06:49:44.305Z,64.31
2018-04-18T06:52:11.861Z,64.10
2018-04-18T06:54:39.456Z,67.12
2018-04-18T06:57:07.017Z,64.61
2018-04-18T06:59:34.574Z,62.47
2018-04-18T07:02:02.123Z,61.33
2018-04-18T07:04:29.685Z,63.27
2018-04-18T07:06:57.289Z,63.30
2018-04-18T07:09:24.870Z,64.56
2018-04-18T07:11:52.419Z,64.51
2018-04-18T07:14:19.980Z,63.81
2018-04-18T07:16:47.609Z,65.92
2018-04-18T07:19:15.218Z,63.45
2018-04-18T07:21:42.774Z,65.21
2018-04-18T07:24:10.367Z,63.72
2018-04-18T07:26:37.951Z,62.12
2018-04-18T07:29:05.501Z,62.03
2018-04-18T07:31:33.081Z,60.04
2018-04-18T07:34:00.649Z,60.01
2018-04-18T07:36:28.232Z,58.52
2018-04-18T07:38:55.827Z,56.89
2018-04-18T07:41:23.377Z,53.91
2018-04-18T07:43:50.952Z,53.74
2018-04-18T07:46:18.552Z,53.15
2018-04-18T07:48:46.120Z,52.34
2018-04-18T07:51:13.681Z,50.74
2018-04-18T07:53:41.303Z,50.89
2018-04-18T07:56:08.881Z,51.68
2018-04-18T07:58:36.467Z,50.08
2018-04-18T08:01:04.116Z,48.02
2018-04-18T08:03:31.697Z,47.40
2018-04-18T08:05:59.261Z,47.27
2018-04-18T08:08:26.869Z,46.97
2018-04-18T08:10:54.419Z,47.21
2018-04-18T08:13:21.981Z,47.95
2018-04-18T08:15:49.577Z,49.38
2018-04-18T08:18:17.131Z,44.73
2018-04-18T08:20:44.761Z,43.37
2018-04-18T08:23:12.346Z,44.31
2018-04-18T08:25:39.919Z,45.91
2018-04-18T08:28:07.509Z,47.63
2018-04-18T08:30:35.093Z,47.41
2018-04-18T08:33:02.687Z,47.38
2018-04-18T08:35:30.220Z,49.91
2018-04-18T08:37:57.797Z,48.57
2018-04-18T08:40:25.375Z,47.56
2018-04-18T08:42:52.972Z,46.92
2018-04-18T08:45:20.541Z,47.03
2018-04-18T08:47:48.118Z,48.34
2018-04-18T08:50:15.724Z,48.22
2018-04-18T08:52:43.462Z,46.73
2018-04-18T08:55:11.043Z,47.69
2018-04-18T08:57:38.617Z,47.94
2018-04-18T09:00:06.193Z,49.41
2018-04-18T09:02:33.768Z,48.84
2018-04-18T09:05:01.338Z,49.39
2018-04-18T09:07:28.912Z,47.85
2018-04-18T09:09:56.478Z,47.57
2018-04-18T09:12:24.086Z,47.99
2018-04-18T09:14:51.685Z,48.61
2018-04-18T09:17:19.341Z,47.19
2018-04-18T09:19:46.919Z,49.56
2018-04-18T09:22:14.536Z,46.67
2018-04-18T09:24:42.103Z,47.26
2018-04-18T09:27:09.719Z,45.70
2018-04-18T09:29:37.307Z,46.21
2018-04-18T09:32:04.868Z,45.94
2018-04-18T09:34:32.444Z,47.26
2018-04-18T09:36:59.982Z,46.81
2018-04-18T09:39:27.554Z,47.90
2018-04-18T09:41:55.127Z,47.18
2018-04-18T09:44:22.693Z,47.89
2018-04-18T09:46:50.269Z,47.52
2018-04-18T09:49:17.836Z,47.08
2018-04-18T09:51:45.400Z,49.97
2018-04-18T09:54:12.938Z,47.12
2018-04-18T09:56:40.493Z,46.28
2018-04-18T09:59:08.131Z,46.67
2018-04-18T10:01:41.342Z,46.50
2018-04-18T10:04:09.859Z,45.74
2018-04-18T10:06:37.427Z,45.68
2018-04-18T10:09:06.518Z,47.10
2018-04-18T10:11:34.094Z,45.26
2018-04-18T10:14:01.696Z,46.54
2018-04-18T10:16:29.254Z,46.17
2018-04-18T10:18:56.817Z,45.21
2018-04-18T10:21:24.409Z,45.73
2018-04-18T10:23:51.998Z,45.94
2018-04-18T10:26:19.572Z,44.94
2018-04-18T10:28:47.136Z,44.98
2018-04-18T10:31:14.713Z,44.88
2018-04-18T10:33:42.307Z,44.69
2018-04-18T10:36:09.862Z,45.44
2018-04-18T10:38:37.490Z,44.62
2018-04-18T10:41:05.054Z,45.22
2018-04-18T10:43:32.619Z,45.38
2018-04-18T10:46:00.244Z,44.90
2018-04-18T10:48:27.801Z,44.49
2018-04-18T10:50:55.389Z,44.90
2018-04-18T10:53:23.257Z,44.97
2018-04-18T10:55:50.851Z,45.45
2018-04-18T10:58:18.418Z,45.17
2018-04-18T11:00:46.007Z,44.39
2018-04-18T11:03:13.570Z,44.61
2018-04-18T11:05:41.144Z,45.27
2018-04-18T11:08:09.518Z,45.72
2018-04-18T11:10:37.083Z,44.57
2018-04-18T11:13:04.661Z,46.71
2018-04-18T11:15:32.924Z,44.41
2018-04-18T11:18:00.516Z,44.28
2018-04-18T11:20:28.089Z,44.98
2018-04-18T11:22:55.633Z,44.42
2018-04-18T11:25:23.189Z,44.83
2018-04-18T11:27:50.931Z,45.52
2018-04-18T11:30:18.549Z,46.04
2018-04-18T11:32:46.321Z,45.81
2018-04-18T11:35:13.882Z,45.53
2018-04-18T11:37:42.156Z,46.56
2018-04-18T11:40:10.713Z,48.61
2018-04-18T11:42:38.292Z,46.04
2018-04-18T11:45:05.864Z,46.54
2018-04-18T11:47:33.472Z,45.84
2018-04-18T11:50:01.025Z,46.22
2018-04-18T11:52:28.599Z,45.85
2018-04-18T11:54:56.175Z,45.84
2018-04-18T11:57:23.721Z,45.50
2018-04-18T11:59:51.404Z,45.36
2018-04-18T12:02:18.973Z,48.78
2018-04-18T12:04:46.561Z,45.25
2018-04-18T12:07:14.125Z,45.90
2018-04-18T12:09:45.681Z,48.90
2018-04-18T12:12:13.264Z,47.47
2018-04-18T12:14:40.809Z,46.94
2018-04-18T12:17:08.364Z,44.25
2018-04-18T12:19:36.776Z,45.82
2018-04-18T12:22:04.327Z,47.28
2018-04-18T12:24:31.871Z,46.04
2018-04-18T12:26:59.455Z,46.76
2018-04-18T12:29:27.021Z,43.89
2018-04-18T12:31:54.568Z,45.30
2018-04-18T12:34:22.162Z,46.02
2018-04-18T12:36:49.787Z,44.82
2018-04-18T12:39:17.371Z,43.92
2018-04-18T12:41:44.927Z,42.38
2018-04-18T12:44:12.508Z,41.07
2018-04-18T12:46:40.092Z,44.07
2018-04-18T12:49:07.660Z,41.57
2018-04-18T12:51:35.208Z,45.79
2018-04-18T12:54:02.758Z,46.13
2018-04-18T12:56:30.325Z,44.99
2018-04-18T12:58:57.888Z,43.34
2018-04-18T13:01:25.449Z,41.98
2018-04-18T13:03:53.008Z,41.21
2018-04-18T13:06:20.564Z,41.58
2018-04-18T13:08:48.165Z,40.36
2018-04-18T13:11:15.716Z,42.66
2018-04-18T13:13:43.275Z,41.91
2018-04-18T13:16:10.834Z,44.83
2018-04-18T13:18:38.394Z,43.99
2018-04-18T13:21:05.945Z,43.78
2018-04-18T13:23:33.514Z,42.28
2018-04-18T13:26:01.055Z,40.53
2018-04-18T13:28:28.633Z,38.42
2018-04-18T13:30:56.188Z,40.25
2018-04-18T13:33:23.774Z,40.47
2018-04-18T13:35:52.118Z,39.90
2018-04-18T13:38:19.687Z,40.49
2018-04-18T13:40:47.253Z,40.17
2018-04-18T13:43:14.829Z,40.41
2018-04-18T13:45:42.442Z,40.36
2018-04-18T13:48:09.984Z,40.09
2018-04-18T13:50:37.549Z,40.02
2018-04-18T13:53:05.124Z,41.02
2018-04-18T13:55:32.684Z,40.43
2018-04-18T13:58:00.293Z,41.08
2018-04-18T14:00:27.862Z,42.14
2018-04-18T14:02:55.419Z,42.21
2018-04-18T14:05:22.974Z,42.14
2018-04-18T14:07:50.588Z,41.26
2018-04-18T14:10:18.123Z,41.28
2018-04-18T14:12:45.682Z,41.44
2018-04-18T14:15:14.880Z,40.39
2018-04-18T14:17:42.469Z,40.22
2018-04-18T14:20:10.017Z,43.76
2018-04-18T14:22:37.580Z,40.44
2018-04-18T14:25:05.148Z,39.37
2018-04-18T14:27:32.815Z,39.96
2018-04-18T14:30:00.520Z,40.18
2018-04-18T14:32:28.071Z,40.27
2018-04-18T14:34:55.661Z,39.37
2018-04-18T14:37:23.239Z,40.42
2018-04-18T14:39:50.824Z,40.81
2018-04-18T14:42:18.498Z,39.53
2018-04-18T14:44:46.046Z,39.49
2018-04-18T14:47:13.594Z,39.27
2018-04-18T14:49:41.142Z,39.15
2018-04-18T14:52:08.712Z,38.52
2018-04-18T14:54:36.287Z,38.91
2018-04-18T14:57:03.857Z,38.67
2018-04-18T14:59:31.415Z,37.91
2018-04-18T15:01:58.990Z,38.95
2018-04-18T15:04:26.554Z,38.78
2018-04-18T15:06:54.108Z,40.64
2018-04-18T15:09:21.664Z,38.70
2018-04-18T15:11:49.233Z,39.13
2018-04-18T15:14:16.815Z,37.82
2018-04-18T15:16:44.376Z,37.08
2018-04-18T15:19:11.929Z,36.08
2018-04-18T15:21:39.502Z,35.77
2018-04-18T15:24:07.089Z,36.32
2018-04-18T15:26:34.654Z,38.06
2018-04-18T15:29:02.205Z,37.97
2018-04-18T15:31:29.768Z,37.90
2018-04-18T15:33:57.328Z,38.22
2018-04-18T15:36:24.886Z,37.50
2018-04-18T15:38:52.479Z,37.20
2018-04-18T15:41:20.057Z,37.04
2018-04-18T15:43:47.636Z,37.17
2018-04-18T15:46:15.198Z,36.99
2018-04-18T15:48:42.761Z,37.11
2018-04-18T15:51:10.332Z,36.92
2018-04-18T15:53:37.925Z,37.34
2018-04-18T15:56:05.494Z,39.61
2018-04-18T15:58:33.116Z,37.14
2018-04-18T16:01:00.678Z,37.09
2018-04-18T16:03:28.238Z,37.94
2018-04-18T16:05:55.814Z,37.51
2018-04-18T16:08:23.362Z,36.49
2018-04-18T16:10:50.965Z,36.62
2018-04-18T16:13:18.523Z,37.48
2018-04-18T16:15:46.079Z,39.18
2018-04-18T16:18:13.700Z,39.74
2018-04-18T16:20:41.277Z,40.23
2018-04-18T16:23:08.850Z,40.71
2018-04-18T16:25:36.497Z,40.25
2018-04-18T16:28:04.063Z,40.76
2018-04-18T16:30:41.601Z,40.62
2018-04-18T16:33:09.173Z,40.57
2018-04-18T16:35:36.779Z,39.84
2018-04-18T16:38:04.337Z,39.79
2018-04-18T16:40:31.910Z,40.12
2018-04-18T16:42:59.503Z,39.63
2018-04-18T16:45:27.129Z,39.50
2018-04-18T16:47:54.730Z,39.07
2018-04-18T16:50:22.354Z,39.41
2018-04-18T16:52:49.913Z,40.31
2018-04-18T16:55:17.474Z,43.44
2018-04-18T16:57:45.034Z,40.17
2018-04-18T17:00:12.668Z,40.66
2018-04-18T17:02:40.256Z,39.91
2018-04-18T17:05:07.964Z,40.61
2018-04-18T17:07:35.530Z,40.11
2018-04-18T17:10:03.328Z,40.18
2018-04-18T17:12:30.934Z,40.04
2018-04-18T17:14:58.520Z,40.13
2018-04-18T17:17:26.086Z,40.24
2018-04-18T17:19:53.845Z,40.70
2018-04-18T17:22:21.406Z,41.91
2018-04-18T17:24:48.993Z,43.15
2018-04-18T17:27:16.566Z,43.44
2018-04-18T17:29:44.134Z,43.64
2018-04-18T17:32:11.693Z,44.06
2018-04-18T17:34:39.268Z,43.51
2018-04-18T17:37:06.859Z,43.32
2018-04-18T17:39:34.528Z,42.97
2018-04-18T17:42:02.115Z,42.84
2018-04-18T17:44:29.712Z,42.84
2018-04-18T17:46:57.879Z,43.07
2018-04-18T17:49:25.424Z,43.69
2018-04-18T17:51:53.012Z,43.84
2018-04-18T17:54:20.592Z,44.43
2018-04-18T17:56:48.171Z,44.88
2018-04-18T17:59:15.735Z,44.86
2018-04-18T18:01:44.881Z,45.08
2018-04-18T18:04:13.870Z,45.50
2018-04-18T18:06:41.468Z,45.72
2018-04-18T18:09:09.379Z,45.98
2018-04-18T18:11:36.948Z,46.21
2018-04-18T18:14:04.520Z,46.38
2018-04-18T18:16:32.552Z,46.60
2018-04-18T18:19:00.161Z,47.01
2018-04-18T18:21:27.952Z,47.24
2018-04-18T18:23:55.687Z,46.76
2018-04-18T18:26:23.250Z,46.89
2018-04-18T18:28:51.084Z,48.76
2018-04-18T18:31:18.966Z,48.86
2018-04-18T18:33:46.683Z,49.58
2018-04-18T18:36:14.468Z,49.28
2018-04-18T18:38:42.071Z,48.78
2018-04-18T18:41:09.685Z,48.64
2018-04-18T18:43:37.592Z,49.91
2018-04-18T18:46:05.166Z,51.60
2018-04-18T18:48:32.741Z,51.81
2018-04-18T18:51:00.313Z,52.65
2018-04-18T18:53:27.868Z,53.87
2018-04-18T18:55:55.496Z,52.27
2018-04-18T18:58:23.135Z,52.63
2018-04-18T19:00:50.737Z,52.84
2018-04-18T19:03:18.322Z,53.94
2018-04-18T19:05:45.953Z,53.53
2018-04-18T19:08:13.730Z,53.85
2018-04-18T19:10:41.282Z,54.24
2018-04-18T19:13:08.856Z,54.88
2018-04-18T19:15:36.441Z,55.59
2018-04-18T19:18:04.033Z,56.32
2018-04-18T19:20:31.629Z,56.52
2018-04-18T19:22:59.237Z,56.34
2018-04-18T19:25:27.017Z,57.29
2018-04-18T19:27:54.596Z,60.63
2018-04-18T19:30:22.163Z,60.82
2018-04-18T19:32:49.741Z,60.93
2018-04-18T19:35:17.347Z,60.32
2018-04-18T19:37:44.915Z,60.99
2018-04-18T19:40:12.537Z,63.14
2018-04-18T19:42:40.133Z,63.25
2018-04-18T19:50:58.339Z,63.66
2018-04-18T19:53:25.984Z,63.56
2018-04-18T19:55:53.553Z,63.76
2018-04-18T19:58:21.144Z,64.12
2018-04-18T20:00:48.739Z,64.17
2018-04-18T20:03:16.341Z,65.40
2018-04-18T20:05:43.958Z,65.65
2018-04-18T20:08:11.577Z,66.39
2018-04-18T20:10:39.159Z,67.94
2018-04-18T20:13:06.725Z,67.92
2018-04-18T20:15:34.291Z,67.67
2018-04-18T20:18:01.866Z,67.86
2018-04-18T20:20:29.494Z,68.04
2018-04-18T20:22:57.068Z,67.68
2018-04-18T20:25:24.678Z,67.81
2018-04-18T20:27:52.305Z,68.08
2018-04-18T20:30:19.929Z,68.64
2018-04-18T20:32:47.653Z,69.40
2018-04-18T20:35:15.213Z,69.85
2018-04-18T20:37:42.774Z,69.92
2018-04-18T20:40:10.337Z,69.84
2018-04-18T20:42:37.896Z,70.07
2018-04-18T20:45:05.728Z,69.20
2018-04-18T20:47:33.309Z,70.48
2018-04-18T20:50:00.908Z,71.01
2018-04-18T20:52:28.508Z,71.37
2018-04-18T20:54:56.103Z,71.85
2018-04-18T20:57:23.667Z,72.12
2018-04-18T20:59:51.221Z,72.09
2018-04-18T21:02:18.798Z,72.57
2018-04-18T21:04:46.374Z,74.99
2018-04-18T21:07:13.942Z,72.78
2018-04-18T21:09:41.566Z,71.36
2018-04-18T21:12:09.149Z,73.68
2018-04-18T21:14:36.760Z,74.06
2018-04-18T21:17:04.331Z,74.23
2018-04-18T21:19:31.890Z,74.36
2018-04-18T21:21:59.467Z,74.33
2018-04-18T21:24:27.095Z,74.77
2018-04-18T21:26:54.666Z,75.54
2018-04-18T21:29:22.239Z,75.64
2018-04-18T21:31:49.808Z,76.33
2018-04-18T21:34:17.410Z,77.22
2018-04-18T21:36:44.965Z,77.51
2018-04-18T21:39:12.547Z,77.63
2018-04-18T21:41:40.128Z,78.13
2018-04-18T21:44:07.685Z,78.41
2018-04-18T21:46:35.260Z,78.57
2018-04-18T21:49:02.842Z,78.56
2018-04-18T21:51:30.439Z,78.31
2018-04-18T21:53:57.994Z,78.81
2018-04-18T21:56:25.579Z,79.03
2018-04-18T21:58:53.161Z,79.43
2018-04-18T22:10:09.118Z,81.02
2018-04-18T22:12:36.693Z,80.30
2018-04-18T22:15:04.282Z,80.81
2018-04-18T22:17:31.842Z,80.67
2018-04-18T22:19:59.407Z,80.80
2018-04-18T22:22:26.988Z,81.18
2018-04-18T22:24:54.552Z,81.47
2018-04-18T22:27:22.103Z,81.54
2018-04-18T22:29:49.688Z,81.81
2018-04-18T22:32:17.276Z,81.80
2018-04-18T22:34:44.869Z,82.01
2018-04-18T22:37:12.521Z,82.26
2018-04-18T22:39:40.118Z,82.66
2018-04-18T22:42:07.684Z,83.01
2018-04-18T22:44:35.257Z,83.30
2018-04-18T22:47:02.853Z,83.14
2018-04-18T22:49:30.429Z,83.25
2018-04-18T22:51:58.011Z,83.75
2018-04-18T22:54:25.585Z,83.46
2018-04-18T22:56:53.193Z,83.22
2018-04-18T22:59:20.801Z,83.67
2018-04-18T23:01:48.368Z,83.74
2018-04-18T23:04:15.972Z,83.67
2018-04-18T23:06:43.536Z,83.48
2018-04-18T23:09:11.114Z,83.05
2018-04-18T23:11:38.692Z,83.29
2018-04-18T23:14:06.244Z,82.77
2018-04-18T23:16:33.830Z,83.36
2018-04-18T23:19:01.427Z,83.39
2018-04-18T23:21:29.004Z,84.23
2018-04-18T23:23:56.591Z,84.57
2018-04-18T23:26:24.160Z,84.86
2018-04-18T23:28:51.726Z,84.77
2018-04-18T23:31:19.304Z,84.19
2018-04-18T23:33:46.858Z,85.26
2018-04-18T23:36:14.469Z,85.20
2018-04-18T23:38:42.026Z,84.94
2018-04-18T23:41:09.586Z,85.49
2018-04-18T23:43:37.206Z,86.27
2018-04-18T23:46:04.772Z,86.46
2018-04-18T23:48:32.354Z,86.59
2018-04-18T23:50:59.901Z,86.73
2018-04-18T23:53:27.468Z,86.28
2018-04-18T23:55:55.033Z,86.26
2018-04-18T23:58:22.586Z,86.20
